Time;durP1;ratioP1;P1;durP2;ratioP2;P2;SDS_P1;SDS_P2;PMS_P1;PMS_P2;Temp;Humidity;BMP_temperature;BMP_pressure;BME280_temperature;BME280_humidity;BME280_pressure;Samples;Min_cycle;Max_cycle;Signal;HPM_P1;HPM_P2
2021/04/01 00:00:27;;;;;;;3.97;3.40;;;;;;;;;;5023512;28;20048;-54
2021/04/01 00:02:53;;;;;;;5.50;3.78;;;;;;;;;;5032133;28;20148;-54
2021/04/01 00:05:21;;;;;;;4.40;3.13;;;;;;;;;;5024671;28;20040;-53
2021/04/01 00:07:47;;;;;;;7.03;5.38;;;;;;;;;;5030164;28;20033;-53
2021/04/01 00:10:16;;;;;;;6.97;5.65;;;;;;;;;;5024393;28;20046;-54
2021/04/01 00:12:42;;;;;;;7.20;6.60;;;;;;;;;;5016700;28;20030;-55
2021/04/01 00:15:10;;;;;;;8.43;7.25;;;;;;;;;;5030381;28;20056;-54
2021/04/01 00:17:36;;;;;;;30.13;21.10;;;;;;;;;;5022163;28;20050;-54
2021/04/01 00:20:04;;;;;;;23.23;17.27;;;;;;;;;;5025184;28;20037;-55
2021/04/01 00:22:30;;;;;;;22.55;15.95;;;;;;;;;;5017392;28;20037;-54
2021/04/01 00:24:57;;;;;;;11.85;7.45;;;;;;;;;;5015818;28;20479;-55
2021/04/01 00:27:23;;;;;;;7.65;6.78;;;;;;;;;;5026922;28;20144;-54
2021/04/01 00:29:49;;;;;;;5.20;4.90;;;;;;;;;;5021220;28;20038;-55
2021/04/01 00:32:15;;;;;;;4.32;4.05;;;;;;;;;;5021535;28;20045;-55
2021/04/01 00:34:42;;;;;;;6.05;4.45;;;;;;;;;;5019916;28;20049;-52
2021/04/01 00:37:08;;;;;;;7.55;3.42;;;;;;;;;;5015676;28;20398;-52
2021/04/01 00:39:34;;;;;;;5.28;3.85;;;;;;;;;;5015505;28;20042;-54
2021/04/01 00:42:02;;;;;;;4.28;4.05;;;;;;;;;;5023528;28;20042;-54
2021/04/01 00:44:29;;;;;;;4.55;4.35;;;;;;;;;;5025760;28;20033;-54
2021/04/01 00:46:57;;;;;;;6.90;4.90;;;;;;;;;;5020676;28;20554;-55
2021/04/01 00:49:23;;;;;;;4.80;4.60;;;;;;;;;;5026919;28;20068;-54
2021/04/01 00:51:49;;;;;;;5.03;4.72;;;;;;;;;;5014171;28;20045;-53
2021/04/01 00:54:16;;;;;;;5.03;3.45;;;;;;;;;;5016524;28;20163;-55
2021/04/01 00:56:42;;;;;;;3.75;3.55;;;;;;;;;;5029899;28;20053;-54
2021/04/01 00:59:08;;;;;;;3.95;3.45;;;;;;;;;;5017433;28;20052;-54
2021/04/01 01:04:03;;;;;;;2.50;2.40;;;;;;;;;;5015658;28;20038;-54
2021/04/01 01:06:29;;;;;;;2.97;2.88;;;;;;;;;;5014880;28;20410;-55
2021/04/01 01:08:56;;;;;;;4.50;2.17;;;;;;;;;;5013723;28;20034;-54
2021/04/01 01:11:22;;;;;;;4.82;2.80;;;;;;;;;;5020998;28;20044;-52
2021/04/01 01:13:48;;;;;;;2.22;2.13;;;;;;;;;;5023787;28;20046;-53
2021/04/01 01:16:14;;;;;;;4.57;4.22;;;;;;;;;;5017757;28;20042;-54
2021/04/01 01:18:41;;;;;;;2.90;2.70;;;;;;;;;;5014572;28;20045;-50
2021/04/01 01:21:08;;;;;;;3.70;3.50;;;;;;;;;;5018347;28;20046;-54
2021/04/01 01:23:35;;;;;;;3.00;2.90;;;;;;;;;;5023959;28;20611;-54
2021/04/01 01:26:01;;;;;;;3.72;3.42;;;;;;;;;;5029764;28;20056;-54
2021/04/01 01:28:28;;;;;;;4.15;3.83;;;;;;;;;;5019664;28;20057;-54
2021/04/01 01:30:54;;;;;;;3.92;3.60;;;;;;;;;;5026039;28;20068;-50
2021/04/01 01:33:22;;;;;;;3.92;3.25;;;;;;;;;;5015356;28;20042;-54
2021/04/01 01:35:49;;;;;;;3.25;3.15;;;;;;;;;;5018143;28;20103;-54
2021/04/01 01:38:16;;;;;;;3.15;3.10;;;;;;;;;;5015818;28;20033;-55
2021/04/01 01:40:42;;;;;;;3.50;3.35;;;;;;;;;;5021180;28;20026;-54
2021/04/01 01:43:10;;;;;;;3.55;3.35;;;;;;;;;;5027785;28;20393;-52
2021/04/01 01:45:37;;;;;;;3.92;3.63;;;;;;;;;;5016413;28;20034;-53
2021/04/01 01:48:03;;;;;;;4.05;3.83;;;;;;;;;;5015782;28;20509;-55
2021/04/01 01:50:31;;;;;;;3.60;3.30;;;;;;;;;;5025786;28;20046;-53
2021/04/01 01:52:58;;;;;;;4.72;4.20;;;;;;;;;;5020631;28;20048;-55
2021/04/01 01:55:25;;;;;;;7.85;7.32;;;;;;;;;;5028458;28;20050;-55
2021/04/01 01:57:52;;;;;;;9.68;8.73;;;;;;;;;;5015905;28;20537;-55
2021/04/01 02:00:19;;;;;;;8.80;8.00;;;;;;;;;;5015959;28;20049;-55
2021/04/01 02:02:52;;;;;;;5.78;5.38;;;;;;;;;;5014100;28;20490;-55
2021/04/01 02:05:19;;;;;;;6.47;6.18;;;;;;;;;;5014904;28;20044;-52
2021/04/01 02:07:45;;;;;;;5.85;5.72;;;;;;;;;;5021796;28;20041;-54
2021/04/01 02:10:14;;;;;;;6.28;5.97;;;;;;;;;;5022456;28;20033;-52
2021/04/01 02:12:42;;;;;;;6.32;5.70;;;;;;;;;;5028001;28;20037;-55
2021/04/01 02:15:10;;;;;;;6.47;6.07;;;;;;;;;;5014286;28;20049;-54
2021/04/01 02:17:37;;;;;;;5.70;5.32;;;;;;;;;;5020064;28;20049;-54
2021/04/01 02:20:03;;;;;;;8.30;8.10;;;;;;;;;;5030320;28;20037;-54
2021/04/01 02:22:30;;;;;;;9.95;9.27;;;;;;;;;;5022801;28;20041;-54
2021/04/01 02:24:56;;;;;;;9.30;8.18;;;;;;;;;;5017647;28;20811;-51
2021/04/01 02:27:22;;;;;;;10.77;10.32;;;;;;;;;;5018125;28;20049;-53
2021/04/01 02:29:48;;;;;;;7.57;7.32;;;;;;;;;;5022102;28;20437;-54
2021/04/01 02:32:15;;;;;;;9.65;9.10;;;;;;;;;;5018092;28;20046;-55
2021/04/01 02:34:41;;;;;;;6.93;6.50;;;;;;;;;;5024583;28;20146;-55
2021/04/01 02:37:08;;;;;;;6.05;5.85;;;;;;;;;;5029646;28;20034;-53
2021/04/01 02:39:34;;;;;;;4.38;4.28;;;;;;;;;;5020891;28;20041;-55
2021/04/01 02:42:00;;;;;;;6.63;6.38;;;;;;;;;;5028116;28;20044;-54
2021/04/01 02:44:27;;;;;;;7.63;6.45;;;;;;;;;;5019219;28;20038;-54
2021/04/01 02:46:53;;;;;;;7.03;6.72;;;;;;;;;;5022549;28;20049;-53
2021/04/01 02:49:20;;;;;;;6.80;6.50;;;;;;;;;;5024941;28;20481;-55
2021/04/01 02:51:48;;;;;;;8.45;8.00;;;;;;;;;;5021021;28;20038;-51
2021/04/01 02:54:14;;;;;;;11.07;10.15;;;;;;;;;;5016083;28;20048;-52
2021/04/01 02:56:40;;;;;;;13.15;12.27;;;;;;;;;;5019863;28;20120;-55
2021/04/01 02:59:06;;;;;;;9.88;9.23;;;;;;;;;;5019396;28;20041;-53
2021/04/01 03:01:33;;;;;;;11.85;11.27;;;;;;;;;;5021039;28;20436;-54
2021/04/01 03:04:02;;;;;;;12.80;12.30;;;;;;;;;;5021938;28;20597;-52
2021/04/01 03:06:29;;;;;;;17.20;16.00;;;;;;;;;;5014457;28;20034;-52
2021/04/01 03:08:55;;;;;;;17.10;16.40;;;;;;;;;;5018026;28;20370;-55
2021/04/01 03:11:22;;;;;;;15.23;14.93;;;;;;;;;;5017600;28;20597;-53
2021/04/01 03:13:48;;;;;;;12.63;12.43;;;;;;;;;;5026939;28;20045;-55
2021/04/01 03:16:14;;;;;;;11.90;11.57;;;;;;;;;;5022777;28;20050;-55
2021/04/01 03:18:41;;;;;;;7.03;6.57;;;;;;;;;;5029703;28;20076;-54
2021/04/01 03:21:07;;;;;;;4.07;3.97;;;;;;;;;;5020183;28;20124;-52
2021/04/01 03:23:33;;;;;;;5.05;3.85;;;;;;;;;;5031410;28;20034;-53
2021/04/01 03:25:59;;;;;;;4.53;4.32;;;;;;;;;;5026804;28;20038;-53
2021/04/01 03:28:26;;;;;;;4.93;4.80;;;;;;;;;;5025607;28;20045;-55
2021/04/01 03:31:01;;;;;;;4.57;4.43;;;;;;;;;;5030725;28;20492;-53
2021/04/01 03:33:31;;;;;;;4.40;4.22;;;;;;;;;;5021843;28;20046;-55
2021/04/01 03:35:58;;;;;;;3.25;3.15;;;;;;;;;;5014438;28;20038;-55
2021/04/01 03:38:25;;;;;;;2.88;2.78;;;;;;;;;;5017400;28;20074;-54
2021/04/01 03:40:53;;;;;;;3.97;3.72;;;;;;;;;;5018203;28;20517;-54
2021/04/01 03:43:20;;;;;;;4.95;4.85;;;;;;;;;;5024097;28;20038;-55
2021/04/01 03:45:46;;;;;;;8.27;7.97;;;;;;;;;;5022135;28;20134;-55
2021/04/01 03:48:12;;;;;;;13.93;13.48;;;;;;;;;;5013614;28;20053;-55
2021/04/01 03:50:39;;;;;;;13.27;12.18;;;;;;;;;;5021782;28;20060;-53
2021/04/01 03:53:05;;;;;;;12.60;12.27;;;;;;;;;;5027443;28;20553;-54
2021/04/01 03:55:41;;;;;;;15.57;14.90;;;;;;;;;;5018454;28;20565;-55
2021/04/01 04:03:46;;;;;;;19.05;18.50;;;;;;;;;;5024979;28;20049;-55
2021/04/01 04:11:35;;;;;;;19.27;18.52;;;;;;;;;;5022656;28;20049;-55
2021/04/01 04:16:28;;;;;;;17.42;16.65;;;;;;;;;;5015591;28;20042;-54
2021/04/01 04:18:55;;;;;;;19.38;18.20;;;;;;;;;;5017766;28;20080;-52
2021/04/01 04:21:21;;;;;;;20.05;19.50;;;;;;;;;;5028567;28;20389;-53
2021/04/01 04:23:49;;;;;;;17.75;17.15;;;;;;;;;;5017917;28;20491;-52
2021/04/01 04:26:16;;;;;;;16.98;16.52;;;;;;;;;;5017201;28;20052;-56
2021/04/01 04:28:44;;;;;;;17.70;17.10;;;;;;;;;;5027293;28;20037;-54
2021/04/01 04:31:10;;;;;;;18.48;17.88;;;;;;;;;;5021101;28;20046;-55
2021/04/01 04:33:37;;;;;;;19.48;18.75;;;;;;;;;;5027656;28;20049;-55
2021/04/01 04:36:05;;;;;;;15.15;14.75;;;;;;;;;;5019071;28;20443;-55
2021/04/01 04:38:31;;;;;;;23.33;21.30;;;;;;;;;;5018922;28;20038;-53
2021/04/01 04:40:58;;;;;;;21.98;20.80;;;;;;;;;;5025691;28;20473;-55
2021/04/01 04:43:28;;;;;;;18.20;17.33;;;;;;;;;;5022386;28;20030;-54
2021/04/01 04:45:55;;;;;;;15.43;14.93;;;;;;;;;;5030104;28;20065;-54
2021/04/01 04:48:22;;;;;;;19.60;19.17;;;;;;;;;;5023837;28;20060;-51
2021/04/01 04:50:48;;;;;;;19.38;18.95;;;;;;;;;;5027659;28;20103;-52
2021/04/01 04:53:15;;;;;;;20.13;19.38;;;;;;;;;;5025840;28;20033;-53
2021/04/01 04:55:58;;;;;;;19.33;18.70;;;;;;;;;;5025185;28;20042;-55
2021/04/01 04:59:02;;;;;;;19.42;18.77;;;;;;;;;;5017807;28;20041;-55
2021/04/01 05:09:19;;;;;;;22.88;21.48;;;;;;;;;;5027283;28;20628;-55
2021/04/01 05:11:45;;;;;;;18.23;17.50;;;;;;;;;;5023476;28;20057;-54
2021/04/01 05:14:11;;;;;;;18.58;18.00;;;;;;;;;;5030986;28;20038;-53
2021/04/01 05:16:38;;;;;;;18.33;17.73;;;;;;;;;;5023008;28;20030;-55
2021/04/01 05:19:07;;;;;;;9.15;8.48;;;;;;;;;;5028772;28;20049;-54
2021/04/01 05:21:41;;;;;;;11.38;10.82;;;;;;;;;;5022685;28;20463;-55
2021/04/01 05:24:08;;;;;;;14.30;13.60;;;;;;;;;;5023353;28;20044;-54
2021/04/01 05:26:54;;;;;;;7.47;6.72;;;;;;;;;;5027201;28;20041;-57
2021/04/01 05:29:24;;;;;;;5.15;4.82;;;;;;;;;;5026031;28;20056;-57
2021/04/01 05:31:51;;;;;;;4.50;4.30;;;;;;;;;;5025117;28;20431;-57
2021/04/01 05:34:18;;;;;;;4.95;4.35;;;;;;;;;;5029401;28;20037;-57
2021/04/01 05:36:45;;;;;;;4.45;4.28;;;;;;;;;;5022387;28;20052;-58
2021/04/01 05:39:16;;;;;;;7.05;5.28;;;;;;;;;;5028233;28;20034;-57
2021/04/01 05:41:44;;;;;;;7.05;6.65;;;;;;;;;;5024744;28;20470;-58
2021/04/01 05:44:27;;;;;;;7.18;6.55;;;;;;;;;;5022783;28;20029;-57
2021/04/01 05:47:01;;;;;;;6.22;6.03;;;;;;;;;;5014315;28;20577;-57
2021/04/01 05:56:29;;;;;;;7.85;7.13;;;;;;;;;;5028225;28;20045;-58
2021/04/01 05:58:27;;;;;;;8.10;7.28;;;;;;;;;;5035994;28;20554;-57
2021/04/01 06:03:33;;;;;;;7.00;6.40;;;;;;;;;;5031962;28;20044;-56
2021/04/01 06:06:07;;;;;;;6.53;6.15;;;;;;;;;;5019218;28;20559;-53
2021/04/01 06:08:43;;;;;;;6.63;5.45;;;;;;;;;;5026070;28;20377;-58
2021/04/01 06:11:10;;;;;;;5.72;5.53;;;;;;;;;;5032729;28;20045;-57
2021/04/01 06:13:47;;;;;;;6.95;6.53;;;;;;;;;;5030743;28;20025;-56
2021/04/01 06:16:14;;;;;;;5.78;5.32;;;;;;;;;;5028179;28;20046;-57
2021/04/01 06:18:41;;;;;;;5.18;4.60;;;;;;;;;;5034113;28;20504;-53
2021/04/01 06:21:12;;;;;;;4.35;4.10;;;;;;;;;;5026217;28;20037;-55
2021/04/01 06:23:42;;;;;;;4.93;3.42;;;;;;;;;;5030881;28;20030;-57
2021/04/01 06:26:12;;;;;;;3.38;3.13;;;;;;;;;;5029587;28;20128;-58
2021/04/01 06:28:49;;;;;;;4.18;4.07;;;;;;;;;;5026213;28;20045;-58
2021/04/01 06:31:22;;;;;;;5.03;3.85;;;;;;;;;;5015272;28;20033;-57
2021/04/01 06:33:52;;;;;;;3.83;3.72;;;;;;;;;;5019818;28;20042;-58
2021/04/01 06:36:19;;;;;;;4.07;3.72;;;;;;;;;;5022322;28;20259;-56
2021/04/01 06:38:46;;;;;;;4.45;4.05;;;;;;;;;;5031969;28;20052;-57
2021/04/01 06:41:31;;;;;;;4.80;4.53;;;;;;;;;;5026280;28;20731;-58
2021/04/01 06:44:22;;;;;;;4.43;4.32;;;;;;;;;;5030339;28;20421;-58
2021/04/01 06:46:48;;;;;;;3.75;3.60;;;;;;;;;;5014421;28;20573;-55
2021/04/01 06:52:13;;;;;;;3.17;3.08;;;;;;;;;;5028530;28;20482;-57
2021/04/01 06:54:49;;;;;;;2.60;2.50;;;;;;;;;;5029284;28;20465;-58
2021/04/01 07:05:57;;;;;;;4.18;3.88;;;;;;;;;;5025201;28;20052;-58
2021/04/01 07:09:26;;;;;;;4.15;3.85;;;;;;;;;;5028794;28;20053;-58
2021/04/01 07:11:43;;;;;;;7.45;4.82;;;;;;;;;;5024549;28;20064;-58
2021/04/01 07:14:11;;;;;;;2.80;2.70;;;;;;;;;;5018648;28;20141;-58
2021/04/01 07:47:20;;;;;;;1.60;1.50;;;;;;;;;;4969395;28;683758;-56
2021/04/01 07:49:48;;;;;;;1.23;1.13;;;;;;;;;;5007715;28;20045;-59
2021/04/01 07:52:18;;;;;;;2.80;1.35;;;;;;;;;;5008567;28;20471;-58
2021/04/01 08:05:33;;;;;;;1.08;1.08;;;;;;;;;;5004318;28;20053;-56
2021/04/01 08:08:02;;;;;;;5.05;2.38;;;;;;;;;;5005261;28;20046;-59
2021/04/01 08:10:30;;;;;;;1.38;1.00;;;;;;;;;;4999560;28;20577;-58
2021/04/01 08:13:02;;;;;;;4.97;1.63;;;;;;;;;;4999073;28;20708;-59
2021/04/01 08:15:31;;;;;;;1.85;0.90;;;;;;;;;;5030003;28;20434;-59
2021/04/01 08:18:41;;;;;;;2.53;0.90;;;;;;;;;;5021061;28;20050;-58
2021/04/01 08:20:49;;;;;;;5.00;0.90;;;;;;;;;;5018419;28;20136;-55
2021/04/01 08:23:35;;;;;;;5.57;1.17;;;;;;;;;;5030251;28;20137;-59
2021/04/01 08:26:37;;;;;;;3.80;0.98;;;;;;;;;;5022878;28;20119;-58
2021/04/01 08:30:16;;;;;;;1.73;1.23;;;;;;;;;;5025211;28;20026;-59
2021/04/01 08:33:03;;;;;;;3.40;0.90;;;;;;;;;;5015999;28;20129;-58
2021/04/01 08:35:56;;;;;;;2.00;1.35;;;;;;;;;;5030291;28;20069;-58
2021/04/01 08:38:42;;;;;;;1.50;0.90;;;;;;;;;;5024027;28;20485;-58
2021/04/01 08:41:39;;;;;;;1.08;1.08;;;;;;;;;;5024220;28;20040;-59
2021/04/01 08:44:51;;;;;;;1.98;1.08;;;;;;;;;;5029147;28;20038;-59
2021/04/01 08:47:58;;;;;;;1.05;1.05;;;;;;;;;;5013681;28;20074;-59
2021/04/01 08:50:43;;;;;;;1.30;0.90;;;;;;;;;;5023509;28;20156;-58
2021/04/01 08:53:26;;;;;;;2.35;0.90;;;;;;;;;;5026124;28;20045;-56
2021/04/01 08:56:00;;;;;;;2.55;1.00;;;;;;;;;;5030548;28;20505;-58
2021/04/01 08:58:46;;;;;;;0.93;0.93;;;;;;;;;;5024176;28;20040;-59
2021/04/01 09:01:18;;;;;;;2.58;0.80;;;;;;;;;;5026161;28;20375;-59
2021/04/01 09:03:49;;;;;;;2.55;0.80;;;;;;;;;;5029395;28;20363;-58
2021/04/01 09:06:18;;;;;;;0.95;0.80;;;;;;;;;;5024295;28;20054;-59
2021/04/01 09:08:59;;;;;;;1.35;0.90;;;;;;;;;;5026958;28;20038;-59
2021/04/01 09:11:35;;;;;;;1.15;0.90;;;;;;;;;;5027548;28;20488;-59
2021/04/01 09:14:11;;;;;;;1.35;0.80;;;;;;;;;;5022219;28;20042;-59
2021/04/01 09:16:56;;;;;;;1.17;0.90;;;;;;;;;;5014739;28;20091;-59
2021/04/01 09:19:26;;;;;;;1.15;0.85;;;;;;;;;;5027892;28;20517;-60
2021/04/01 09:21:57;;;;;;;2.85;1.02;;;;;;;;;;5022457;28;20030;-60
2021/04/01 09:24:28;;;;;;;4.88;1.45;;;;;;;;;;5030116;28;20044;-59
2021/04/01 09:26:55;;;;;;;1.65;0.90;;;;;;;;;;5023961;28;20054;-59
2021/04/01 09:29:21;;;;;;;2.28;0.90;;;;;;;;;;5028022;28;20025;-59
2021/04/01 09:32:06;;;;;;;1.58;0.90;;;;;;;;;;5027558;28;20041;-60
2021/04/01 09:34:32;;;;;;;2.00;1.00;;;;;;;;;;5020645;28;20360;-59
2021/04/01 09:37:17;;;;;;;2.50;0.80;;;;;;;;;;5013238;28;20046;-60
2021/04/01 09:39:44;;;;;;;0.90;0.90;;;;;;;;;;5027345;28;20470;-56
2021/04/01 09:42:14;;;;;;;3.60;1.65;;;;;;;;;;5015857;28;20068;-56
2021/04/01 09:44:51;;;;;;;1.08;0.90;;;;;;;;;;5030848;28;20033;-60
2021/04/01 09:47:23;;;;;;;3.33;0.80;;;;;;;;;;5023439;28;20045;-57
2021/04/01 09:50:19;;;;;;;4.32;0.90;;;;;;;;;;5025279;28;20394;-59
2021/04/01 09:52:55;;;;;;;1.55;0.80;;;;;;;;;;5008076;28;20077;-54
2021/04/01 09:55:21;;;;;;;0.82;0.82;;;;;;;;;;5006532;28;20046;-59
2021/04/01 09:57:54;;;;;;;2.42;0.80;;;;;;;;;;5006844;28;20132;-60
2021/04/01 10:03:35;;;;;;;2.75;0.80;;;;;;;;;;5005370;28;20086;-60
2021/04/01 10:06:02;;;;;;;0.85;0.77;;;;;;;;;;5004927;28;20045;-60
2021/04/01 10:08:30;;;;;;;2.00;0.70;;;;;;;;;;5007512;28;20046;-59
2021/04/01 10:11:03;;;;;;;2.95;0.73;;;;;;;;;;5002323;28;20057;-57
2021/04/01 10:13:30;;;;;;;3.60;0.70;;;;;;;;;;5005040;28;20042;-57
2021/04/01 10:15:57;;;;;;;1.00;0.73;;;;;;;;;;5006895;28;20081;-59
2021/04/01 10:18:30;;;;;;;1.17;0.70;;;;;;;;;;5004436;28;20422;-60
2021/04/01 10:20:58;;;;;;;0.70;0.70;;;;;;;;;;4992600;28;20046;-58
2021/04/01 10:23:24;;;;;;;5.18;0.77;;;;;;;;;;5004684;28;20038;-59
2021/04/01 10:26:00;;;;;;;0.70;0.70;;;;;;;;;;4998779;28;20060;-59
2021/04/01 10:28:46;;;;;;;3.35;0.75;;;;;;;;;;5007167;28;20038;-59
2021/04/01 10:31:17;;;;;;;0.93;0.70;;;;;;;;;;5019856;28;20049;-60
2021/04/01 10:33:55;;;;;;;1.50;0.80;;;;;;;;;;5022215;28;20056;-59
2021/04/01 10:36:26;;;;;;;1.95;0.80;;;;;;;;;;5023415;28;20037;-59
2021/04/01 10:39:12;;;;;;;1.20;0.70;;;;;;;;;;5027372;28;20394;-59
2021/04/01 10:41:51;;;;;;;5.63;0.80;;;;;;;;;;5029306;28;20041;-59
2021/04/01 10:44:18;;;;;;;0.80;0.80;;;;;;;;;;5027779;28;20030;-60
2021/04/01 10:46:52;;;;;;;4.40;0.85;;;;;;;;;;5025859;28;20042;-59
2021/04/01 10:49:29;;;;;;;1.45;0.98;;;;;;;;;;5029756;28;20056;-59
2021/04/01 10:51:57;;;;;;;2.53;0.90;;;;;;;;;;5024978;28;20033;-60
2021/04/01 10:54:25;;;;;;;1.05;1.05;;;;;;;;;;5028924;28;20072;-60
2021/04/01 10:56:53;;;;;;;1.92;0.93;;;;;;;;;;5029281;28;20099;-58
2021/04/01 10:59:34;;;;;;;1.63;0.90;;;;;;;;;;5024070;28;20516;-59
2021/04/01 11:02:10;;;;;;;2.78;0.80;;;;;;;;;;5029516;28;20042;-60
2021/04/01 11:04:38;;;;;;;1.80;0.93;;;;;;;;;;5028543;28;20037;-58
2021/04/01 11:07:05;;;;;;;1.90;1.00;;;;;;;;;;5027466;28;20482;-60
2021/04/01 11:09:32;;;;;;;2.85;0.90;;;;;;;;;;5030990;28;20033;-59
2021/04/01 11:14:32;;;;;;;3.10;0.90;;;;;;;;;;5030745;28;20499;-59
2021/04/01 11:16:59;;;;;;;4.00;0.88;;;;;;;;;;5029079;28;20042;-60
2021/04/01 11:19:27;;;;;;;4.90;0.90;;;;;;;;;;5025971;28;20472;-60
2021/04/01 11:21:54;;;;;;;0.82;0.82;;;;;;;;;;5031997;28;20429;-60
2021/04/01 11:24:31;;;;;;;7.10;2.55;;;;;;;;;;5024982;28;20092;-60
2021/04/01 11:27:04;;;;;;;1.77;0.88;;;;;;;;;;5025825;28;20052;-60
2021/04/01 11:29:31;;;;;;;0.73;0.73;;;;;;;;;;5030732;28;20100;-60
2021/04/01 11:32:14;;;;;;;1.90;0.80;;;;;;;;;;5025177;28;20461;-59
2021/04/01 11:34:41;;;;;;;1.08;0.80;;;;;;;;;;5029270;28;20033;-59
2021/04/01 11:37:09;;;;;;;1.35;1.05;;;;;;;;;;5026809;28;20049;-55
2021/04/01 11:39:39;;;;;;;3.70;0.75;;;;;;;;;;5025193;28;20041;-57
2021/04/01 11:42:12;;;;;;;0.80;0.80;;;;;;;;;;5027766;28;20628;-57
2021/04/01 11:44:39;;;;;;;0.70;0.70;;;;;;;;;;5026509;28;20148;-57
2021/04/01 11:47:13;;;;;;;2.13;0.70;;;;;;;;;;5027945;28;20054;-56
2021/04/01 11:49:39;;;;;;;6.03;0.80;;;;;;;;;;5030185;28;20049;-57
2021/04/01 11:52:09;;;;;;;2.45;0.70;;;;;;;;;;5025080;28;20047;-54
2021/04/01 11:54:36;;;;;;;2.50;0.80;;;;;;;;;;5030120;28;20072;-57
2021/04/01 11:57:32;;;;;;;0.70;0.70;;;;;;;;;;5026581;28;20049;-57
2021/04/01 12:00:05;;;;;;;2.08;0.82;;;;;;;;;;5023660;28;20067;-57
2021/04/01 12:02:43;;;;;;;0.93;0.70;;;;;;;;;;5030614;28;20045;-57
2021/04/01 12:05:14;;;;;;;1.23;0.80;;;;;;;;;;5026268;28;20048;-58
2021/04/01 12:07:40;;;;;;;3.45;0.77;;;;;;;;;;5026484;28;20291;-55
2021/04/01 12:10:09;;;;;;;1.48;0.85;;;;;;;;;;5017006;28;20125;-57
2021/04/01 12:12:36;;;;;;;3.80;0.80;;;;;;;;;;5025535;28;20034;-57
2021/04/01 12:15:04;;;;;;;2.15;1.00;;;;;;;;;;5029654;28;20406;-55
2021/04/01 12:17:34;;;;;;;2.42;0.80;;;;;;;;;;5027325;28;20049;-57
2021/04/01 12:20:02;;;;;;;0.70;0.70;;;;;;;;;;5025835;28;20034;-57
2021/04/01 12:22:30;;;;;;;3.90;0.80;;;;;;;;;;5031695;28;20053;-57
2021/04/01 12:24:57;;;;;;;1.27;0.70;;;;;;;;;;5023059;28;20413;-57
2021/04/01 12:27:27;;;;;;;1.48;0.90;;;;;;;;;;5027172;28;20038;-54
2021/04/01 12:29:53;;;;;;;2.50;0.88;;;;;;;;;;5025718;28;20117;-57
2021/04/01 12:32:30;;;;;;;1.77;0.80;;;;;;;;;;5019235;28;20073;-56
2021/04/01 12:35:04;;;;;;;0.60;0.60;;;;;;;;;;5026073;28;20038;-58
2021/04/01 12:37:30;;;;;;;1.20;0.70;;;;;;;;;;5025361;28;20128;-56
2021/04/01 12:40:07;;;;;;;3.63;1.20;;;;;;;;;;5025300;28;20044;-57
2021/04/01 12:42:33;;;;;;;0.60;0.60;;;;;;;;;;5020434;28;20512;-56
2021/04/01 12:45:00;;;;;;;1.88;0.70;;;;;;;;;;5023779;28;20095;-55
2021/04/01 12:47:28;;;;;;;0.82;0.70;;;;;;;;;;5025347;28;20081;-57
2021/04/01 12:49:58;;;;;;;1.10;0.80;;;;;;;;;;5025385;28;20039;-56
2021/04/01 12:52:25;;;;;;;0.70;0.70;;;;;;;;;;5024340;28;20072;-56
2021/04/01 12:54:52;;;;;;;0.60;0.60;;;;;;;;;;5026917;28;20046;-57
2021/04/01 12:57:21;;;;;;;7.93;1.35;;;;;;;;;;5022439;28;20037;-57
2021/04/01 13:00:09;;;;;;;3.85;0.80;;;;;;;;;;5022587;28;20046;-54
2021/04/01 13:02:35;;;;;;;6.25;0.93;;;;;;;;;;5026469;28;20549;-57
2021/04/01 13:05:04;;;;;;;0.98;0.60;;;;;;;;;;5022026;28;20052;-56
2021/04/01 13:07:45;;;;;;;2.95;0.70;;;;;;;;;;5030040;28;20044;-57
2021/04/01 13:12:47;;;;;;;1.48;0.90;;;;;;;;;;5019118;28;20042;-57
2021/04/01 13:15:14;;;;;;;3.30;0.70;;;;;;;;;;5028954;28;20045;-54
2021/04/01 13:17:40;;;;;;;39.20;8.13;;;;;;;;;;5023341;28;20079;-57
2021/04/01 13:20:11;;;;;;;177.35;31.13;;;;;;;;;;5026018;28;20040;-56
2021/04/01 13:22:57;;;;;;;30.90;4.80;;;;;;;;;;5026563;28;20107;-55
2021/04/01 13:25:23;;;;;;;3.67;0.70;;;;;;;;;;5020181;28;20026;-57
2021/04/01 13:27:51;;;;;;;3.58;0.60;;;;;;;;;;5029312;28;20073;-55
2021/04/01 13:30:18;;;;;;;0.70;0.70;;;;;;;;;;5023785;28;20083;-55
2021/04/01 13:40:23;;;;;;;1.90;0.60;;;;;;;;;;5025285;28;20034;-55
2021/04/01 13:42:54;;;;;;;2.20;0.50;;;;;;;;;;5026260;28;20038;-57
2021/04/01 13:45:27;;;;;;;4.00;0.60;;;;;;;;;;5022305;28;20038;-56
2021/04/01 13:48:03;;;;;;;;;;;;;;;;;;5024895;28;20052;-57
2021/04/01 13:50:34;;;;;;;0.57;0.57;;;;;;;;;;5020701;28;19992;-53
2021/04/01 13:56:03;;;;;;;4.88;0.73;;;;;;;;;;5024620;28;20044;-57
2021/04/01 14:04:02;;;;;;;4.22;0.60;;;;;;;;;;5025106;28;20465;-57
2021/04/01 14:09:28;;;;;;;1.90;0.57;;;;;;;;;;5023437;28;20034;-57
2021/04/01 14:11:56;;;;;;;0.85;0.60;;;;;;;;;;5025167;28;20065;-57
2021/04/01 14:14:23;;;;;;;0.63;0.50;;;;;;;;;;5026474;28;20036;-56
2021/04/01 14:16:51;;;;;;;1.58;0.57;;;;;;;;;;5032234;28;20045;-56
2021/04/01 14:19:19;;;;;;;2.25;0.60;;;;;;;;;;5024216;28;20397;-56
2021/04/01 14:21:48;;;;;;;2.38;0.60;;;;;;;;;;5020522;28;20053;-54
2021/04/01 14:24:20;;;;;;;0.90;0.90;;;;;;;;;;5030235;28;20538;-57
2021/04/01 14:27:12;;;;;;;0.60;0.60;;;;;;;;;;5024315;28;20128;-57
2021/04/01 14:29:34;;;;;;;4.80;0.60;;;;;;;;;;5019734;28;20440;-55
2021/04/01 14:32:01;;;;;;;1.65;0.50;;;;;;;;;;5029467;28;20128;-56
2021/04/01 14:34:28;;;;;;;1.83;0.50;;;;;;;;;;5030146;28;20049;-57
2021/04/01 14:36:58;;;;;;;1.33;0.63;;;;;;;;;;5034250;28;20037;-57
2021/04/01 14:39:27;;;;;;;1.52;0.50;;;;;;;;;;5026647;28;20701;-57
2021/04/01 14:42:01;;;;;;;0.60;0.60;;;;;;;;;;5030699;28;20042;-56
2021/04/01 14:44:30;;;;;;;0.60;0.50;;;;;;;;;;5030465;28;20033;-57
2021/04/01 14:46:56;;;;;;;2.95;0.60;;;;;;;;;;5027315;28;20050;-57
2021/04/01 14:49:22;;;;;;;1.05;0.57;;;;;;;;;;5031476;28;20045;-57
2021/04/01 14:51:49;;;;;;;1.73;0.60;;;;;;;;;;5024023;28;20484;-55
2021/04/01 14:54:18;;;;;;;1.50;0.93;;;;;;;;;;5029628;28;20045;-57
2021/04/01 14:56:47;;;;;;;5.13;0.90;;;;;;;;;;5029161;28;20052;-56
2021/04/01 14:59:16;;;;;;;4.57;0.70;;;;;;;;;;5022170;28;20041;-59
2021/04/01 15:01:58;;;;;;;3.65;0.70;;;;;;;;;;5034066;28;20048;-57
2021/04/01 15:04:26;;;;;;;0.82;0.50;;;;;;;;;;5026810;28;20037;-59
2021/04/01 15:06:53;;;;;;;3.17;0.60;;;;;;;;;;5029433;28;20045;-60
2021/04/01 15:09:25;;;;;;;1.20;0.85;;;;;;;;;;5032832;28;20033;-60
2021/04/01 15:11:51;;;;;;;2.58;0.68;;;;;;;;;;5026874;28;20520;-60
2021/04/01 15:14:18;;;;;;;1.25;0.60;;;;;;;;;;5033580;28;20041;-59
2021/04/01 15:16:44;;;;;;;3.20;0.60;;;;;;;;;;5028247;28;20052;-60
2021/04/01 15:19:12;;;;;;;0.70;0.70;;;;;;;;;;5029267;28;20042;-58
2021/04/01 15:21:39;;;;;;;2.05;0.70;;;;;;;;;;5032437;28;20029;-60
2021/04/01 15:24:07;;;;;;;0.90;0.70;;;;;;;;;;5026096;28;20516;-60
2021/04/01 15:26:34;;;;;;;0.70;0.70;;;;;;;;;;5031277;28;20038;-60
2021/04/01 15:29:01;;;;;;;0.82;0.60;;;;;;;;;;5019679;28;20418;-58
2021/04/01 15:31:27;;;;;;;2.40;0.70;;;;;;;;;;5021050;28;20048;-59
2021/04/01 15:33:54;;;;;;;1.75;0.80;;;;;;;;;;5032962;28;20060;-59
2021/04/01 15:36:21;;;;;;;1.58;0.70;;;;;;;;;;5027529;28;20045;-59
2021/04/01 15:38:48;;;;;;;4.82;0.80;;;;;;;;;;5031626;28;20049;-59
2021/04/01 15:41:15;;;;;;;2.58;0.70;;;;;;;;;;5028306;28;20038;-60
2021/04/01 15:43:41;;;;;;;1.17;0.70;;;;;;;;;;5027263;28;20034;-60
2021/04/01 15:46:08;;;;;;;1.48;0.80;;;;;;;;;;5016088;28;20042;-57
2021/04/01 15:48:36;;;;;;;3.80;0.77;;;;;;;;;;5025735;28;20038;-60
2021/04/01 15:51:04;;;;;;;4.10;0.77;;;;;;;;;;5030189;28;20493;-59
2021/04/01 15:53:33;;;;;;;1.77;0.80;;;;;;;;;;5030381;28;20476;-59
2021/04/01 15:56:00;;;;;;;8.60;0.80;;;;;;;;;;5025441;28;20107;-60
2021/04/01 15:58:27;;;;;;;1.83;0.80;;;;;;;;;;5029359;28;20049;-58
2021/04/01 16:00:54;;;;;;;3.67;0.88;;;;;;;;;;5027143;28;20065;-60
2021/04/01 16:03:21;;;;;;;0.70;0.70;;;;;;;;;;5029696;28;20053;-59
2021/04/01 16:05:47;;;;;;;4.85;0.75;;;;;;;;;;5030202;28;20037;-59
2021/04/01 16:08:13;;;;;;;1.50;0.80;;;;;;;;;;5024545;28;20092;-59
2021/04/01 16:10:40;;;;;;;1.73;0.80;;;;;;;;;;5032029;28;20029;-57
2021/04/01 16:13:07;;;;;;;1.48;0.70;;;;;;;;;;5026320;28;20038;-57
2021/04/01 16:15:34;;;;;;;1.40;0.80;;;;;;;;;;5029300;28;20041;-58
2021/04/01 16:18:02;;;;;;;2.17;0.70;;;;;;;;;;5030426;28;20041;-58
2021/04/01 16:20:28;;;;;;;4.40;0.80;;;;;;;;;;5024197;28;20037;-59
2021/04/01 16:22:56;;;;;;;1.05;0.80;;;;;;;;;;5030271;28;20108;-59
2021/04/01 16:25:22;;;;;;;2.58;0.88;;;;;;;;;;5026931;28;20099;-59
2021/04/01 16:27:48;;;;;;;3.47;0.70;;;;;;;;;;5027298;28;20052;-58
2021/04/01 16:30:15;;;;;;;2.78;0.70;;;;;;;;;;5031893;28;20047;-59
2021/04/01 16:32:45;;;;;;;4.20;0.70;;;;;;;;;;5024277;28;20056;-59
2021/04/01 16:35:12;;;;;;;0.80;0.80;;;;;;;;;;5028014;28;20046;-59
2021/04/01 16:37:39;;;;;;;1.25;0.70;;;;;;;;;;5018472;28;20073;-59
2021/04/01 16:40:06;;;;;;;1.05;0.80;;;;;;;;;;5024294;28;20037;-59
2021/04/01 16:42:32;;;;;;;1.23;0.70;;;;;;;;;;5031817;28;20038;-59
2021/04/01 16:44:59;;;;;;;1.40;0.70;;;;;;;;;;5024673;28;20552;-59
2021/04/01 16:47:25;;;;;;;1.40;0.60;;;;;;;;;;5028847;28;20042;-59
2021/04/01 16:49:51;;;;;;;0.60;0.60;;;;;;;;;;5028250;28;20072;-58
2021/04/01 16:52:18;;;;;;;2.80;0.68;;;;;;;;;;5026542;28;20429;-59